sensor_id;sensor_type;location;lat;lon;timestamp;temperature;humidity
74364;DHT22;62797;49.740;10.154;2023-07-13T00:00:09;21.90;23.90
74364;DHT22;62797;49.740;10.154;2023-07-13T00:02:38;21.90;23.90
74364;DHT22;62797;49.740;10.154;2023-07-13T00:05:04;21.80;23.60
74364;DHT22;62797;49.740;10.154;2023-07-13T00:07:30;21.80;23.70
74364;DHT22;62797;49.740;10.154;2023-07-13T00:09:56;21.70;23.80
74364;DHT22;62797;49.740;10.154;2023-07-13T00:12:29;21.60;24.30
74364;DHT22;62797;49.740;10.154;2023-07-13T00:15:00;21.50;23.90
74364;DHT22;62797;49.740;10.154;2023-07-13T00:17:27;21.40;24.10
74364;DHT22;62797;49.740;10.154;2023-07-13T00:19:53;21.30;24.20
74364;DHT22;62797;49.740;10.154;2023-07-13T00:22:21;21.20;24.00
74364;DHT22;62797;49.740;10.154;2023-07-13T00:24:48;21.20;24.10
74364;DHT22;62797;49.740;10.154;2023-07-13T00:27:14;21.20;24.30
74364;DHT22;62797;49.740;10.154;2023-07-13T00:29:39;21.10;24.00
74364;DHT22;62797;49.740;10.154;2023-07-13T00:32:06;21.10;23.80
74364;DHT22;62797;49.740;10.154;2023-07-13T00:34:32;21.10;23.10
74364;DHT22;62797;49.740;10.154;2023-07-13T00:36:58;20.90;23.30
74364;DHT22;62797;49.740;10.154;2023-07-13T00:39:24;21.00;23.10
74364;DHT22;62797;49.740;10.154;2023-07-13T00:41:50;20.90;23.20
74364;DHT22;62797;49.740;10.154;2023-07-13T00:44:17;20.80;23.40
74364;DHT22;62797;49.740;10.154;2023-07-13T00:46:43;20.80;23.30
74364;DHT22;62797;49.740;10.154;2023-07-13T00:49:12;20.80;23.40
74364;DHT22;62797;49.740;10.154;2023-07-13T00:51:55;20.80;22.90
74364;DHT22;62797;49.740;10.154;2023-07-13T00:54:25;20.70;23.50
74364;DHT22;62797;49.740;10.154;2023-07-13T00:56:53;20.70;23.80
74364;DHT22;62797;49.740;10.154;2023-07-13T00:59:21;20.60;23.90
74364;DHT22;62797;49.740;10.154;2023-07-13T01:01:48;20.60;24.00
74364;DHT22;62797;49.740;10.154;2023-07-13T01:04:20;20.60;23.90
74364;DHT22;62797;49.740;10.154;2023-07-13T01:06:46;20.50;24.30
74364;DHT22;62797;49.740;10.154;2023-07-13T01:09:14;20.50;24.00
74364;DHT22;62797;49.740;10.154;2023-07-13T01:11:42;20.40;24.50
74364;DHT22;62797;49.740;10.154;2023-07-13T01:14:08;20.30;25.00
74364;DHT22;62797;49.740;10.154;2023-07-13T01:16:36;20.30;24.80
74364;DHT22;62797;49.740;10.154;2023-07-13T01:19:11;20.20;25.10
74364;DHT22;62797;49.740;10.154;2023-07-13T01:21:39;20.10;25.60
74364;DHT22;62797;49.740;10.154;2023-07-13T01:24:09;20.10;25.60
74364;DHT22;62797;49.740;10.154;2023-07-13T01:26:34;20.10;25.90
74364;DHT22;62797;49.740;10.154;2023-07-13T01:29:00;20.10;25.70
74364;DHT22;62797;49.740;10.154;2023-07-13T01:31:27;20.00;25.70
74364;DHT22;62797;49.740;10.154;2023-07-13T01:33:53;20.00;25.90
74364;DHT22;62797;49.740;10.154;2023-07-13T01:36:20;19.90;26.00
74364;DHT22;62797;49.740;10.154;2023-07-13T01:38:46;19.80;26.10
74364;DHT22;62797;49.740;10.154;2023-07-13T01:41:12;19.80;26.00
74364;DHT22;62797;49.740;10.154;2023-07-13T01:43:38;19.80;26.30
74364;DHT22;62797;49.740;10.154;2023-07-13T01:46:06;19.70;25.80
74364;DHT22;62797;49.740;10.154;2023-07-13T01:48:33;19.70;26.60
74364;DHT22;62797;49.740;10.154;2023-07-13T01:50:59;19.60;26.80
74364;DHT22;62797;49.740;10.154;2023-07-13T01:53:25;19.50;27.20
74364;DHT22;62797;49.740;10.154;2023-07-13T01:55:51;19.50;26.80
74364;DHT22;62797;49.740;10.154;2023-07-13T01:58:16;19.40;27.00
74364;DHT22;62797;49.740;10.154;2023-07-13T02:00:42;19.40;27.10
74364;DHT22;62797;49.740;10.154;2023-07-13T02:03:08;19.30;27.50
74364;DHT22;62797;49.740;10.154;2023-07-13T02:05:34;19.30;27.50
74364;DHT22;62797;49.740;10.154;2023-07-13T02:08:00;19.30;27.40
74364;DHT22;62797;49.740;10.154;2023-07-13T02:10:28;19.30;27.30
74364;DHT22;62797;49.740;10.154;2023-07-13T02:12:54;19.30;27.60
74364;DHT22;62797;49.740;10.154;2023-07-13T02:15:20;19.20;27.70
74364;DHT22;62797;49.740;10.154;2023-07-13T02:17:46;19.20;27.80
74364;DHT22;62797;49.740;10.154;2023-07-13T02:20:12;19.10;27.90
74364;DHT22;62797;49.740;10.154;2023-07-13T02:22:38;19.10;27.80
74364;DHT22;62797;49.740;10.154;2023-07-13T02:25:04;19.00;28.00
74364;DHT22;62797;49.740;10.154;2023-07-13T02:27:29;19.00;28.30
74364;DHT22;62797;49.740;10.154;2023-07-13T02:29:55;18.90;28.30
74364;DHT22;62797;49.740;10.154;2023-07-13T02:32:21;18.90;28.70
74364;DHT22;62797;49.740;10.154;2023-07-13T02:34:47;18.80;28.50
74364;DHT22;62797;49.740;10.154;2023-07-13T02:37:13;18.80;28.50
74364;DHT22;62797;49.740;10.154;2023-07-13T02:39:39;18.80;28.50
74364;DHT22;62797;49.740;10.154;2023-07-13T02:42:05;18.90;27.90
74364;DHT22;62797;49.740;10.154;2023-07-13T02:44:31;18.80;28.00
74364;DHT22;62797;49.740;10.154;2023-07-13T02:46:57;18.80;27.80
74364;DHT22;62797;49.740;10.154;2023-07-13T02:49:23;18.80;27.70
74364;DHT22;62797;49.740;10.154;2023-07-13T02:51:48;18.70;28.00
74364;DHT22;62797;49.740;10.154;2023-07-13T02:54:14;18.70;28.00
74364;DHT22;62797;49.740;10.154;2023-07-13T02:56:40;18.70;28.10
74364;DHT22;62797;49.740;10.154;2023-07-13T02:59:06;18.80;27.80
74364;DHT22;62797;49.740;10.154;2023-07-13T03:01:32;18.70;27.90
74364;DHT22;62797;49.740;10.154;2023-07-13T03:04:01;18.70;27.60
74364;DHT22;62797;49.740;10.154;2023-07-13T03:06:31;18.60;27.50
74364;DHT22;62797;49.740;10.154;2023-07-13T03:08:56;18.60;27.80
74364;DHT22;62797;49.740;10.154;2023-07-13T03:11:23;18.60;27.70
74364;DHT22;62797;49.740;10.154;2023-07-13T03:14:22;18.50;28.00
74364;DHT22;62797;49.740;10.154;2023-07-13T03:16:48;18.30;28.50
74364;DHT22;62797;49.740;10.154;2023-07-13T03:19:14;18.20;28.70
74364;DHT22;62797;49.740;10.154;2023-07-13T03:21:43;18.10;28.90
74364;DHT22;62797;49.740;10.154;2023-07-13T03:24:09;18.20;28.70
74364;DHT22;62797;49.740;10.154;2023-07-13T03:26:35;18.00;29.40
74364;DHT22;62797;49.740;10.154;2023-07-13T03:29:03;17.90;29.70
74364;DHT22;62797;49.740;10.154;2023-07-13T03:31:32;17.90;29.60
74364;DHT22;62797;49.740;10.154;2023-07-13T03:33:58;17.90;29.70
74364;DHT22;62797;49.740;10.154;2023-07-13T03:36:26;17.90;29.70
74364;DHT22;62797;49.740;10.154;2023-07-13T03:38:57;17.80;29.70
74364;DHT22;62797;49.740;10.154;2023-07-13T03:41:28;17.80;29.80
74364;DHT22;62797;49.740;10.154;2023-07-13T03:43:54;17.80;29.80
74364;DHT22;62797;49.740;10.154;2023-07-13T03:46:23;17.80;30.20
74364;DHT22;62797;49.740;10.154;2023-07-13T03:48:48;17.70;29.90
74364;DHT22;62797;49.740;10.154;2023-07-13T03:51:16;17.70;30.10
74364;DHT22;62797;49.740;10.154;2023-07-13T03:53:44;17.80;29.70
74364;DHT22;62797;49.740;10.154;2023-07-13T03:56:13;17.80;29.70
74364;DHT22;62797;49.740;10.154;2023-07-13T03:58:42;17.70;29.90
74364;DHT22;62797;49.740;10.154;2023-07-13T04:01:16;17.70;29.90
74364;DHT22;62797;49.740;10.154;2023-07-13T04:03:42;17.70;30.00
74364;DHT22;62797;49.740;10.154;2023-07-13T04:06:15;17.80;29.70
74364;DHT22;62797;49.740;10.154;2023-07-13T04:08:41;17.70;29.90
74364;DHT22;62797;49.740;10.154;2023-07-13T04:11:08;17.70;29.90
74364;DHT22;62797;49.740;10.154;2023-07-13T04:13:33;17.70;30.20
74364;DHT22;62797;49.740;10.154;2023-07-13T04:15:59;17.70;30.20
74364;DHT22;62797;49.740;10.154;2023-07-13T04:18:25;17.70;30.40
74364;DHT22;62797;49.740;10.154;2023-07-13T04:20:50;17.80;30.40
74364;DHT22;62797;49.740;10.154;2023-07-13T04:23:17;17.90;30.20
74364;DHT22;62797;49.740;10.154;2023-07-13T04:25:43;17.90;30.00
74364;DHT22;62797;49.740;10.154;2023-07-13T04:28:09;17.90;30.20
74364;DHT22;62797;49.740;10.154;2023-07-13T04:30:35;18.00;29.90
74364;DHT22;62797;49.740;10.154;2023-07-13T04:33:00;18.00;30.00
74364;DHT22;62797;49.740;10.154;2023-07-13T04:35:26;17.90;30.20
74364;DHT22;62797;49.740;10.154;2023-07-13T04:37:52;17.90;30.00
74364;DHT22;62797;49.740;10.154;2023-07-13T04:40:18;17.90;30.20
74364;DHT22;62797;49.740;10.154;2023-07-13T04:42:45;18.00;29.80
74364;DHT22;62797;49.740;10.154;2023-07-13T04:45:11;18.00;29.90
74364;DHT22;62797;49.740;10.154;2023-07-13T04:47:37;18.10;29.80
74364;DHT22;62797;49.740;10.154;2023-07-13T04:50:03;18.20;29.80
74364;DHT22;62797;49.740;10.154;2023-07-13T04:52:28;18.30;29.40
74364;DHT22;62797;49.740;10.154;2023-07-13T04:54:54;18.50;28.90
74364;DHT22;62797;49.740;10.154;2023-07-13T04:57:20;18.50;29.00
74364;DHT22;62797;49.740;10.154;2023-07-13T04:59:45;18.50;29.00
74364;DHT22;62797;49.740;10.154;2023-07-13T05:02:11;18.60;28.80
74364;DHT22;62797;49.740;10.154;2023-07-13T05:04:37;18.70;28.40
74364;DHT22;62797;49.740;10.154;2023-07-13T05:07:02;18.70;28.30
74364;DHT22;62797;49.740;10.154;2023-07-13T05:09:28;18.80;28.20
74364;DHT22;62797;49.740;10.154;2023-07-13T05:11:54;18.90;28.10
74364;DHT22;62797;49.740;10.154;2023-07-13T05:14:19;18.90;27.60
74364;DHT22;62797;49.740;10.154;2023-07-13T05:16:45;19.00;27.30
74364;DHT22;62797;49.740;10.154;2023-07-13T05:19:12;19.10;26.80
74364;DHT22;62797;49.740;10.154;2023-07-13T05:21:37;19.10;27.30
74364;DHT22;62797;49.740;10.154;2023-07-13T05:24:03;19.20;26.40
74364;DHT22;62797;49.740;10.154;2023-07-13T05:26:29;19.20;25.80
74364;DHT22;62797;49.740;10.154;2023-07-13T05:28:55;19.20;25.40
74364;DHT22;62797;49.740;10.154;2023-07-13T05:31:20;19.10;25.70
74364;DHT22;62797;49.740;10.154;2023-07-13T05:33:49;19.10;25.60
74364;DHT22;62797;49.740;10.154;2023-07-13T05:36:14;19.10;25.60
74364;DHT22;62797;49.740;10.154;2023-07-13T05:38:40;19.10;25.40
74364;DHT22;62797;49.740;10.154;2023-07-13T05:41:06;19.10;25.90
74364;DHT22;62797;49.740;10.154;2023-07-13T05:43:33;19.20;25.20
74364;DHT22;62797;49.740;10.154;2023-07-13T05:45:58;19.20;25.00
74364;DHT22;62797;49.740;10.154;2023-07-13T05:48:24;19.30;24.50
74364;DHT22;62797;49.740;10.154;2023-07-13T05:50:50;19.20;24.60
74364;DHT22;62797;49.740;10.154;2023-07-13T05:53:15;19.30;24.20
74364;DHT22;62797;49.740;10.154;2023-07-13T05:55:42;19.20;24.40
74364;DHT22;62797;49.740;10.154;2023-07-13T05:58:08;19.30;24.40
74364;DHT22;62797;49.740;10.154;2023-07-13T06:00:34;19.40;24.40
74364;DHT22;62797;49.740;10.154;2023-07-13T06:03:00;19.60;23.30
74364;DHT22;62797;49.740;10.154;2023-07-13T06:05:25;19.60;23.20
74364;DHT22;62797;49.740;10.154;2023-07-13T06:07:52;19.80;22.50
74364;DHT22;62797;49.740;10.154;2023-07-13T06:10:18;19.90;21.90
74364;DHT22;62797;49.740;10.154;2023-07-13T06:12:44;19.80;21.90
74364;DHT22;62797;49.740;10.154;2023-07-13T06:15:09;19.90;21.50
74364;DHT22;62797;49.740;10.154;2023-07-13T06:17:35;20.00;21.00
74364;DHT22;62797;49.740;10.154;2023-07-13T06:20:01;20.10;20.50
74364;DHT22;62797;49.740;10.154;2023-07-13T06:22:27;20.00;21.20
74364;DHT22;62797;49.740;10.154;2023-07-13T06:24:52;20.10;20.70
74364;DHT22;62797;49.740;10.154;2023-07-13T06:27:18;20.20;21.10
74364;DHT22;62797;49.740;10.154;2023-07-13T06:29:44;20.20;21.50
74364;DHT22;62797;49.740;10.154;2023-07-13T06:32:10;20.20;20.80
74364;DHT22;62797;49.740;10.154;2023-07-13T06:34:36;20.20;21.10
74364;DHT22;62797;49.740;10.154;2023-07-13T06:37:02;20.20;20.50
74364;DHT22;62797;49.740;10.154;2023-07-13T06:39:28;20.30;20.40
74364;DHT22;62797;49.740;10.154;2023-07-13T06:41:53;20.30;20.40
74364;DHT22;62797;49.740;10.154;2023-07-13T06:44:19;20.40;19.60
74364;DHT22;62797;49.740;10.154;2023-07-13T06:46:45;20.40;20.40
74364;DHT22;62797;49.740;10.154;2023-07-13T06:49:10;20.40;20.20
74364;DHT22;62797;49.740;10.154;2023-07-13T06:51:36;20.60;18.90
74364;DHT22;62797;49.740;10.154;2023-07-13T06:54:03;20.70;19.30
74364;DHT22;62797;49.740;10.154;2023-07-13T06:56:29;20.60;19.40
74364;DHT22;62797;49.740;10.154;2023-07-13T06:58:54;20.70;18.50
74364;DHT22;62797;49.740;10.154;2023-07-13T07:01:20;20.60;19.00
74364;DHT22;62797;49.740;10.154;2023-07-13T07:03:46;20.60;19.30
74364;DHT22;62797;49.740;10.154;2023-07-13T07:06:16;20.60;18.60
74364;DHT22;62797;49.740;10.154;2023-07-13T07:08:44;20.70;18.80
74364;DHT22;62797;49.740;10.154;2023-07-13T07:11:15;20.80;18.80
74364;DHT22;62797;49.740;10.154;2023-07-13T07:13:41;20.70;18.80
74364;DHT22;62797;49.740;10.154;2023-07-13T07:16:07;20.80;18.40
74364;DHT22;62797;49.740;10.154;2023-07-13T07:18:34;20.80;18.20
74364;DHT22;62797;49.740;10.154;2023-07-13T07:20:59;20.90;18.70
74364;DHT22;62797;49.740;10.154;2023-07-13T07:23:25;20.90;18.10
74364;DHT22;62797;49.740;10.154;2023-07-13T07:25:51;20.90;17.20
74364;DHT22;62797;49.740;10.154;2023-07-13T07:28:18;21.00;17.40
74364;DHT22;62797;49.740;10.154;2023-07-13T07:30:44;21.00;17.70
74364;DHT22;62797;49.740;10.154;2023-07-13T07:33:10;21.00;18.20
74364;DHT22;62797;49.740;10.154;2023-07-13T07:35:36;20.90;19.00
74364;DHT22;62797;49.740;10.154;2023-07-13T07:38:02;21.00;18.50
74364;DHT22;62797;49.740;10.154;2023-07-13T07:40:27;21.00;18.20
74364;DHT22;62797;49.740;10.154;2023-07-13T07:42:53;21.00;17.80
74364;DHT22;62797;49.740;10.154;2023-07-13T07:45:19;21.20;17.00
74364;DHT22;62797;49.740;10.154;2023-07-13T07:47:45;21.10;17.00
74364;DHT22;62797;49.740;10.154;2023-07-13T07:50:11;21.30;15.60
74364;DHT22;62797;49.740;10.154;2023-07-13T07:52:37;21.50;16.00
74364;DHT22;62797;49.740;10.154;2023-07-13T07:55:05;21.40;16.20
74364;DHT22;62797;49.740;10.154;2023-07-13T07:57:31;21.20;17.20
74364;DHT22;62797;49.740;10.154;2023-07-13T07:59:57;21.20;16.60
74364;DHT22;62797;49.740;10.154;2023-07-13T08:02:25;21.60;14.40
74364;DHT22;62797;49.740;10.154;2023-07-13T08:04:53;21.60;13.90
74364;DHT22;62797;49.740;10.154;2023-07-13T08:07:19;21.60;14.30
74364;DHT22;62797;49.740;10.154;2023-07-13T08:09:45;21.50;15.30
74364;DHT22;62797;49.740;10.154;2023-07-13T08:12:12;21.60;15.50
74364;DHT22;62797;49.740;10.154;2023-07-13T08:14:37;21.50;15.80
74364;DHT22;62797;49.740;10.154;2023-07-13T08:17:04;21.60;15.90
74364;DHT22;62797;49.740;10.154;2023-07-13T08:19:30;21.70;15.90
74364;DHT22;62797;49.740;10.154;2023-07-13T08:21:56;21.70;16.10
74364;DHT22;62797;49.740;10.154;2023-07-13T08:24:23;21.80;14.10
74364;DHT22;62797;49.740;10.154;2023-07-13T08:26:50;21.80;13.90
74364;DHT22;62797;49.740;10.154;2023-07-13T08:29:19;21.90;12.90
74364;DHT22;62797;49.740;10.154;2023-07-13T08:31:45;22.00;13.50
74364;DHT22;62797;49.740;10.154;2023-07-13T08:34:10;22.30;13.00
74364;DHT22;62797;49.740;10.154;2023-07-13T08:36:36;22.20;12.80
74364;DHT22;62797;49.740;10.154;2023-07-13T08:39:02;22.30;13.20
74364;DHT22;62797;49.740;10.154;2023-07-13T08:41:28;22.30;14.00
74364;DHT22;62797;49.740;10.154;2023-07-13T08:43:58;22.50;13.30
74364;DHT22;62797;49.740;10.154;2023-07-13T08:46:28;22.60;12.70
74364;DHT22;62797;49.740;10.154;2023-07-13T08:48:59;22.70;13.10
74364;DHT22;62797;49.740;10.154;2023-07-13T08:51:43;22.60;12.80
74364;DHT22;62797;49.740;10.154;2023-07-13T08:54:41;22.70;12.70
74364;DHT22;62797;49.740;10.154;2023-07-13T08:57:14;22.70;12.00
74364;DHT22;62797;49.740;10.154;2023-07-13T08:59:41;22.80;12.40
74364;DHT22;62797;49.740;10.154;2023-07-13T09:10:49;23.10;11.40
74364;DHT22;62797;49.740;10.154;2023-07-13T09:13:24;23.20;11.40
74364;DHT22;62797;49.740;10.154;2023-07-13T09:15:52;23.20;12.20
74364;DHT22;62797;49.740;10.154;2023-07-13T09:21:00;23.60;10.90
74364;DHT22;62797;49.740;10.154;2023-07-13T09:23:28;23.50;11.80
74364;DHT22;62797;49.740;10.154;2023-07-13T09:26:11;23.70;11.00
74364;DHT22;62797;49.740;10.154;2023-07-13T09:28:50;23.50;11.50
74364;DHT22;62797;49.740;10.154;2023-07-13T09:31:33;23.60;11.80
74364;DHT22;62797;49.740;10.154;2023-07-13T09:34:02;23.80;11.70
74364;DHT22;62797;49.740;10.154;2023-07-13T09:36:31;24.10;12.00
74364;DHT22;62797;49.740;10.154;2023-07-13T09:44:51;25.30;9.40
74364;DHT22;62797;49.740;10.154;2023-07-13T09:47:29;25.20;9.80
74364;DHT22;62797;49.740;10.154;2023-07-13T09:49:57;25.40;8.50
74364;DHT22;62797;49.740;10.154;2023-07-13T09:52:24;25.50;8.60
74364;DHT22;62797;49.740;10.154;2023-07-13T09:54:52;25.80;8.10
74364;DHT22;62797;49.740;10.154;2023-07-13T09:57:23;26.00;7.40
74364;DHT22;62797;49.740;10.154;2023-07-13T09:59:51;26.10;7.90
74364;DHT22;62797;49.740;10.154;2023-07-13T10:02:29;26.20;7.20
74364;DHT22;62797;49.740;10.154;2023-07-13T10:04:57;26.20;7.10
74364;DHT22;62797;49.740;10.154;2023-07-13T10:07:26;26.20;8.50
74364;DHT22;62797;49.740;10.154;2023-07-13T10:09:53;26.30;6.50
74364;DHT22;62797;49.740;10.154;2023-07-13T10:12:20;26.20;7.00
74364;DHT22;62797;49.740;10.154;2023-07-13T10:14:47;26.00;7.10
74364;DHT22;62797;49.740;10.154;2023-07-13T10:17:14;26.20;7.60
74364;DHT22;62797;49.740;10.154;2023-07-13T10:19:42;26.00;7.70
74364;DHT22;62797;49.740;10.154;2023-07-13T10:22:44;25.70;7.50
74364;DHT22;62797;49.740;10.154;2023-07-13T10:25:20;25.50;8.00
74364;DHT22;62797;49.740;10.154;2023-07-13T10:27:50;25.50;8.10
74364;DHT22;62797;49.740;10.154;2023-07-13T10:30:40;25.50;8.50
74364;DHT22;62797;49.740;10.154;2023-07-13T10:33:12;25.60;7.80
74364;DHT22;62797;49.740;10.154;2023-07-13T10:35:40;25.50;7.60
74364;DHT22;62797;49.740;10.154;2023-07-13T10:38:18;25.40;8.30
74364;DHT22;62797;49.740;10.154;2023-07-13T10:43:37;25.30;8.20
74364;DHT22;62797;49.740;10.154;2023-07-13T10:46:06;25.30;8.70
74364;DHT22;62797;49.740;10.154;2023-07-13T10:48:34;25.50;8.60
74364;DHT22;62797;49.740;10.154;2023-07-13T10:51:04;25.30;8.50
74364;DHT22;62797;49.740;10.154;2023-07-13T10:53:33;25.20;9.50
74364;DHT22;62797;49.740;10.154;2023-07-13T10:56:28;25.20;8.80
74364;DHT22;62797;49.740;10.154;2023-07-13T10:59:16;25.30;9.80
74364;DHT22;62797;49.740;10.154;2023-07-13T11:02:11;25.40;9.00
74364;DHT22;62797;49.740;10.154;2023-07-13T11:04:43;25.20;9.50
74364;DHT22;62797;49.740;10.154;2023-07-13T11:07:23;25.20;9.20
74364;DHT22;62797;49.740;10.154;2023-07-13T11:09:52;25.10;9.60
74364;DHT22;62797;49.740;10.154;2023-07-13T11:28:16;25.90;7.80
74364;DHT22;62797;49.740;10.154;2023-07-13T11:33:49;25.80;7.90
74364;DHT22;62797;49.740;10.154;2023-07-13T11:36:15;26.10;8.10
74364;DHT22;62797;49.740;10.154;2023-07-13T11:38:51;26.10;7.40
74364;DHT22;62797;49.740;10.154;2023-07-13T11:41:37;26.00;8.20
74364;DHT22;62797;49.740;10.154;2023-07-13T11:44:16;26.00;7.50
74364;DHT22;62797;49.740;10.154;2023-07-13T11:47:09;25.90;6.00
74364;DHT22;62797;49.740;10.154;2023-07-13T11:49:42;25.80;6.00
74364;DHT22;62797;49.740;10.154;2023-07-13T11:52:17;26.00;6.00
74364;DHT22;62797;49.740;10.154;2023-07-13T11:54:49;25.90;6.90
74364;DHT22;62797;49.740;10.154;2023-07-13T11:57:32;25.90;6.40
74364;DHT22;62797;49.740;10.154;2023-07-13T12:00:23;25.90;7.00
74364;DHT22;62797;49.740;10.154;2023-07-13T12:02:55;25.80;6.90
74364;DHT22;62797;49.740;10.154;2023-07-13T12:05:21;25.80;6.70
74364;DHT22;62797;49.740;10.154;2023-07-13T12:07:48;25.80;8.20
74364;DHT22;62797;49.740;10.154;2023-07-13T12:12:50;26.20;6.60
74364;DHT22;62797;49.740;10.154;2023-07-13T12:15:17;26.10;7.00
74364;DHT22;62797;49.740;10.154;2023-07-13T12:17:42;26.10;7.50
74364;DHT22;62797;49.740;10.154;2023-07-13T12:20:28;26.30;6.90
74364;DHT22;62797;49.740;10.154;2023-07-13T12:22:54;26.30;6.70
74364;DHT22;62797;49.740;10.154;2023-07-13T12:25:22;26.10;7.50
74364;DHT22;62797;49.740;10.154;2023-07-13T12:27:50;26.00;7.10
74364;DHT22;62797;49.740;10.154;2023-07-13T12:30:27;26.20;6.40
74364;DHT22;62797;49.740;10.154;2023-07-13T12:33:12;26.30;7.10
74364;DHT22;62797;49.740;10.154;2023-07-13T12:35:47;26.30;6.00
74364;DHT22;62797;49.740;10.154;2023-07-13T12:38:14;26.40;6.20
74364;DHT22;62797;49.740;10.154;2023-07-13T12:40:40;26.50;7.10
74364;DHT22;62797;49.740;10.154;2023-07-13T12:43:12;26.60;5.60
74364;DHT22;62797;49.740;10.154;2023-07-13T12:45:38;26.50;5.50
74364;DHT22;62797;49.740;10.154;2023-07-13T12:48:16;26.60;5.70
74364;DHT22;62797;49.740;10.154;2023-07-13T12:50:48;26.40;5.80
74364;DHT22;62797;49.740;10.154;2023-07-13T12:53:20;26.30;6.60
74364;DHT22;62797;49.740;10.154;2023-07-13T12:55:50;26.20;6.70
74364;DHT22;62797;49.740;10.154;2023-07-13T12:58:27;26.20;7.70
74364;DHT22;62797;49.740;10.154;2023-07-13T13:00:56;26.60;7.10
74364;DHT22;62797;49.740;10.154;2023-07-13T13:05:47;27.00;6.90
74364;DHT22;62797;49.740;10.154;2023-07-13T13:08:14;26.90;6.40
74364;DHT22;62797;49.740;10.154;2023-07-13T13:10:40;26.80;6.30
74364;DHT22;62797;49.740;10.154;2023-07-13T13:13:06;26.70;6.20
74364;DHT22;62797;49.740;10.154;2023-07-13T13:15:32;26.70;6.30
74364;DHT22;62797;49.740;10.154;2023-07-13T13:17:58;26.70;7.00
74364;DHT22;62797;49.740;10.154;2023-07-13T13:20:25;26.60;6.40
74364;DHT22;62797;49.740;10.154;2023-07-13T13:22:51;26.60;6.90
74364;DHT22;62797;49.740;10.154;2023-07-13T13:25:18;26.70;7.00
74364;DHT22;62797;49.740;10.154;2023-07-13T13:27:45;26.80;7.30
74364;DHT22;62797;49.740;10.154;2023-07-13T13:30:13;26.70;6.60
74364;DHT22;62797;49.740;10.154;2023-07-13T13:32:40;26.60;7.20
74364;DHT22;62797;49.740;10.154;2023-07-13T13:35:14;26.60;7.00
74364;DHT22;62797;49.740;10.154;2023-07-13T13:37:40;26.60;6.40
74364;DHT22;62797;49.740;10.154;2023-07-13T13:40:22;26.50;7.90
74364;DHT22;62797;49.740;10.154;2023-07-13T13:42:53;26.60;6.90
74364;DHT22;62797;49.740;10.154;2023-07-13T13:45:20;26.60;7.10
74364;DHT22;62797;49.740;10.154;2023-07-13T13:47:46;26.50;7.20
74364;DHT22;62797;49.740;10.154;2023-07-13T13:50:17;26.40;7.20
74364;DHT22;62797;49.740;10.154;2023-07-13T13:52:43;26.40;7.50
74364;DHT22;62797;49.740;10.154;2023-07-13T13:55:17;26.40;8.20
74364;DHT22;62797;49.740;10.154;2023-07-13T13:57:45;26.40;7.20
74364;DHT22;62797;49.740;10.154;2023-07-13T14:00:12;26.40;7.70
74364;DHT22;62797;49.740;10.154;2023-07-13T14:02:41;26.40;7.50
74364;DHT22;62797;49.740;10.154;2023-07-13T14:05:12;26.20;7.20
74364;DHT22;62797;49.740;10.154;2023-07-13T14:07:39;26.20;7.40
74364;DHT22;62797;49.740;10.154;2023-07-13T14:10:11;26.10;8.30
74364;DHT22;62797;49.740;10.154;2023-07-13T14:12:38;26.10;7.60
74364;DHT22;62797;49.740;10.154;2023-07-13T14:15:04;26.20;8.20
74364;DHT22;62797;49.740;10.154;2023-07-13T14:17:31;26.40;7.10
74364;DHT22;62797;49.740;10.154;2023-07-13T14:19:57;26.60;7.10
74364;DHT22;62797;49.740;10.154;2023-07-13T14:22:26;26.70;7.10
74364;DHT22;62797;49.740;10.154;2023-07-13T14:24:53;26.70;6.10
74364;DHT22;62797;49.740;10.154;2023-07-13T14:27:19;26.40;6.90
74364;DHT22;62797;49.740;10.154;2023-07-13T14:29:45;26.40;7.10
74364;DHT22;62797;49.740;10.154;2023-07-13T14:32:12;26.60;6.90
74364;DHT22;62797;49.740;10.154;2023-07-13T14:34:38;26.70;6.20
74364;DHT22;62797;49.740;10.154;2023-07-13T14:37:05;27.10;6.40
74364;DHT22;62797;49.740;10.154;2023-07-13T14:39:31;27.10;5.90
74364;DHT22;62797;49.740;10.154;2023-07-13T14:41:57;27.20;5.80
74364;DHT22;62797;49.740;10.154;2023-07-13T14:44:27;26.90;6.40
74364;DHT22;62797;49.740;10.154;2023-07-13T14:46:55;26.80;7.40
74364;DHT22;62797;49.740;10.154;2023-07-13T14:49:35;26.70;6.20
74364;DHT22;62797;49.740;10.154;2023-07-13T14:52:05;26.80;5.90
74364;DHT22;62797;49.740;10.154;2023-07-13T14:54:36;26.70;6.30
74364;DHT22;62797;49.740;10.154;2023-07-13T14:57:12;26.60;5.80
74364;DHT22;62797;49.740;10.154;2023-07-13T14:59:39;26.60;6.10
74364;DHT22;62797;49.740;10.154;2023-07-13T15:04:52;26.50;6.40
74364;DHT22;62797;49.740;10.154;2023-07-13T15:07:18;26.70;6.60
74364;DHT22;62797;49.740;10.154;2023-07-13T15:09:46;27.10;6.10
74364;DHT22;62797;49.740;10.154;2023-07-13T15:12:13;27.30;5.80
74364;DHT22;62797;49.740;10.154;2023-07-13T15:14:41;27.40;5.30
74364;DHT22;62797;49.740;10.154;2023-07-13T15:17:32;27.30;5.20
74364;DHT22;62797;49.740;10.154;2023-07-13T15:19:58;27.00;7.00
74364;DHT22;62797;49.740;10.154;2023-07-13T15:22:24;27.40;6.30
74364;DHT22;62797;49.740;10.154;2023-07-13T15:24:51;27.80;6.20
74364;DHT22;62797;49.740;10.154;2023-07-13T15:27:17;28.20;4.40
74364;DHT22;62797;49.740;10.154;2023-07-13T15:29:42;28.60;4.80
74364;DHT22;62797;49.740;10.154;2023-07-13T15:32:13;28.60;3.70
74364;DHT22;62797;49.740;10.154;2023-07-13T15:34:39;28.40;3.90
74364;DHT22;62797;49.740;10.154;2023-07-13T15:37:16;28.10;3.70
74364;DHT22;62797;49.740;10.154;2023-07-13T15:39:43;27.90;4.00
74364;DHT22;62797;49.740;10.154;2023-07-13T15:42:19;27.80;4.00
74364;DHT22;62797;49.740;10.154;2023-07-13T15:44:49;27.70;4.30
74364;DHT22;62797;49.740;10.154;2023-07-13T15:47:15;27.80;4.60
74364;DHT22;62797;49.740;10.154;2023-07-13T15:49:42;27.90;4.40
74364;DHT22;62797;49.740;10.154;2023-07-13T15:52:23;28.10;4.70
74364;DHT22;62797;49.740;10.154;2023-07-13T15:54:49;28.10;4.50
74364;DHT22;62797;49.740;10.154;2023-07-13T15:57:18;27.80;4.00
74364;DHT22;62797;49.740;10.154;2023-07-13T15:59:45;27.50;4.30
74364;DHT22;62797;49.740;10.154;2023-07-13T16:02:13;27.70;4.70
74364;DHT22;62797;49.740;10.154;2023-07-13T16:04:40;28.10;4.20
74364;DHT22;62797;49.740;10.154;2023-07-13T16:07:12;28.30;3.30
74364;DHT22;62797;49.740;10.154;2023-07-13T16:09:40;28.40;3.20
74364;DHT22;62797;49.740;10.154;2023-07-13T16:12:11;28.30;2.90
74364;DHT22;62797;49.740;10.154;2023-07-13T16:14:38;28.30;3.50
74364;DHT22;62797;49.740;10.154;2023-07-13T16:17:07;28.50;3.50